createdAt,value
2019-01-23T00:01:12.837Z,22.42
2019-01-23T00:03:41.862Z,16.32
2019-01-23T00:06:10.874Z,21.52
2019-01-23T00:08:40.089Z,20.37
2019-01-23T00:11:09.194Z,17.27
2019-01-23T00:13:38.118Z,18.50
2019-01-23T00:16:07.300Z,23.20
2019-01-23T00:18:36.305Z,18.10
2019-01-23T00:21:05.663Z,21.42
2019-01-23T00:23:49.683Z,19.12
2019-01-23T00:26:18.869Z,18.77
2019-01-23T00:28:49.204Z,20.77
2019-01-23T00:31:18.100Z,18.40
2019-01-23T00:33:47.152Z,19.07
2019-01-23T00:36:16.185Z,20.32
2019-01-23T00:38:45.280Z,21.52
2019-01-23T00:41:14.591Z,18.87
2019-01-23T00:43:43.577Z,19.23
2019-01-23T00:46:12.692Z,16.40
2019-01-23T00:48:41.641Z,17.90
2019-01-23T00:51:12.504Z,18.80
2019-01-23T00:53:41.861Z,19.37
2019-01-23T00:56:10.872Z,18.00
2019-01-23T00:58:39.992Z,20.25
2019-01-23T01:01:09.148Z,14.58
2019-01-23T01:03:38.179Z,8.33
2019-01-23T01:06:07.285Z,15.75
2019-01-23T01:08:36.557Z,17.05
2019-01-23T01:11:05.548Z,10.45
2019-01-23T01:13:34.613Z,8.53
2019-01-23T01:16:05.433Z,10.48
2019-01-23T01:18:34.747Z,11.48
2019-01-23T01:21:03.963Z,16.23
2019-01-23T01:23:33.240Z,15.75
2019-01-23T01:26:02.328Z,11.12
2019-01-23T01:28:31.414Z,12.73
2019-01-23T01:31:00.364Z,11.00
2019-01-23T01:33:33.900Z,8.88
2019-01-23T01:36:00.428Z,7.58
2019-01-23T01:38:29.724Z,10.55
2019-01-23T01:40:58.771Z,10.53
2019-01-23T01:43:28.587Z,12.23
2019-01-23T01:45:57.904Z,9.50
2019-01-23T01:48:26.924Z,12.25
2019-01-23T01:50:55.840Z,11.05
2019-01-23T01:53:24.716Z,12.20
2019-01-23T01:55:54.675Z,11.25
2019-01-23T01:58:23.724Z,17.90
2019-01-23T02:00:52.793Z,17.32
2019-01-23T02:03:22.148Z,13.20
2019-01-23T02:05:51.298Z,10.08
2019-01-23T02:08:21.622Z,15.98
2019-01-23T02:10:50.822Z,8.98
2019-01-23T02:13:19.855Z,10.48
2019-01-23T02:15:48.864Z,9.00
2019-01-23T02:18:17.885Z,16.10
2019-01-23T02:20:46.821Z,16.50
2019-01-23T02:23:16.176Z,12.07
2019-01-23T02:25:45.459Z,9.25
2019-01-23T02:28:14.664Z,15.32
2019-01-23T02:30:43.792Z,15.20
2019-01-23T02:33:12.774Z,18.37
2019-01-23T02:35:41.897Z,12.98
2019-01-23T02:38:11.050Z,15.85
2019-01-23T02:40:40.004Z,11.18
2019-01-23T02:43:08.893Z,18.45
2019-01-23T02:45:37.707Z,20.57
2019-01-23T02:48:07.899Z,17.48
2019-01-23T02:50:37.077Z,18.30
2019-01-23T02:53:06.453Z,17.02
2019-01-23T02:55:35.585Z,15.45
2019-01-23T02:58:04.656Z,15.05
2019-01-23T03:00:33.928Z,10.25
2019-01-23T03:03:03.056Z,16.52
2019-01-23T03:05:32.213Z,17.50
2019-01-23T03:08:01.328Z,18.30
2019-01-23T03:10:30.673Z,18.30
2019-01-23T03:12:59.614Z,14.50
2019-01-23T03:15:28.763Z,14.07
2019-01-23T03:17:58.045Z,18.10
2019-01-23T03:20:27.123Z,18.85
2019-01-23T03:22:56.124Z,18.10
2019-01-23T03:25:26.392Z,17.60
2019-01-23T03:27:55.401Z,14.25
2019-01-23T03:30:24.885Z,17.80
2019-01-23T03:32:54.061Z,17.35
2019-01-23T03:35:24.667Z,17.92
2019-01-23T03:37:53.684Z,18.15
2019-01-23T03:40:23.124Z,14.28
2019-01-23T03:42:52.239Z,15.68
2019-01-23T03:45:21.294Z,18.73
2019-01-23T03:47:50.773Z,16.12
2019-01-23T03:50:20.368Z,14.80
2019-01-23T03:52:49.461Z,15.80
2019-01-23T03:55:19.410Z,17.82
2019-01-23T03:57:48.791Z,17.15
2019-01-23T04:00:19.607Z,17.70
2019-01-23T04:02:50.512Z,17.07
2019-01-23T04:05:19.659Z,15.80
2019-01-23T04:07:48.774Z,17.82
2019-01-23T04:10:18.203Z,18.05
2019-01-23T04:13:06.313Z,17.98
2019-01-23T04:15:54.444Z,16.50
2019-01-23T04:18:42.811Z,19.55
2019-01-23T04:21:12.971Z,18.15
2019-01-23T04:23:42.203Z,16.62
2019-01-23T04:26:12.311Z,18.67
2019-01-23T04:28:41.519Z,17.75
2019-01-23T04:31:10.840Z,17.50
2019-01-23T04:33:39.757Z,16.97
2019-01-23T04:36:08.573Z,19.10
2019-01-23T04:38:37.810Z,17.00
2019-01-23T04:41:07.060Z,17.85
2019-01-23T04:43:36.614Z,17.25
2019-01-23T04:46:07.172Z,15.03
2019-01-23T04:48:36.327Z,16.35
2019-01-23T04:51:13.238Z,17.12
2019-01-23T04:53:45.946Z,19.25
2019-01-23T04:56:16.859Z,20.00
2019-01-23T04:58:46.162Z,15.48
2019-01-23T05:01:15.471Z,17.12
2019-01-23T05:03:46.480Z,18.77
2019-01-23T05:06:15.599Z,20.25
2019-01-23T05:08:45.106Z,19.40
2019-01-23T05:11:14.293Z,17.65
2019-01-23T05:13:43.777Z,18.32
2019-01-23T05:16:13.336Z,17.15
2019-01-23T05:18:42.698Z,17.73
2019-01-23T05:21:11.759Z,18.15
2019-01-23T05:23:40.873Z,18.05
2019-01-23T05:26:10.335Z,17.77
2019-01-23T05:28:39.600Z,18.23
2019-01-23T05:31:08.675Z,20.02
2019-01-23T05:33:38.090Z,19.23
2019-01-23T05:36:07.388Z,19.12
2019-01-23T05:38:36.378Z,18.15
2019-01-23T05:41:06.739Z,16.45
2019-01-23T05:43:37.444Z,17.45
2019-01-23T05:46:06.417Z,16.73
2019-01-23T05:48:35.528Z,18.60
2019-01-23T05:51:04.534Z,17.05
2019-01-23T05:53:33.727Z,16.07
2019-01-23T05:56:03.942Z,17.20
2019-01-23T05:58:33.069Z,13.35
2019-01-23T06:01:02.439Z,14.70
2019-01-23T06:03:32.253Z,15.72
2019-01-23T06:06:01.653Z,15.38
2019-01-23T06:08:30.888Z,14.73
2019-01-23T06:10:59.938Z,16.07
2019-01-23T06:13:28.821Z,15.90
2019-01-23T06:15:58.268Z,17.30
2019-01-23T06:18:27.411Z,14.10
2019-01-23T06:20:56.462Z,14.75
2019-01-23T06:23:25.653Z,17.02
2019-01-23T06:25:54.927Z,14.15
2019-01-23T06:28:24.494Z,19.07
2019-01-23T06:30:53.794Z,17.27
2019-01-23T06:33:22.666Z,16.02
2019-01-23T06:35:51.763Z,17.52
2019-01-23T06:38:20.893Z,15.03
2019-01-23T06:40:50.203Z,20.52
2019-01-23T06:43:19.087Z,16.73
2019-01-23T06:45:48.224Z,17.23
2019-01-23T06:48:17.467Z,16.15
2019-01-23T06:50:48.542Z,15.53
2019-01-23T06:53:17.589Z,10.40
2019-01-23T06:55:46.725Z,14.90
2019-01-23T06:58:15.817Z,14.60
2019-01-23T07:00:45.200Z,17.73
2019-01-23T07:03:14.536Z,18.67
2019-01-23T07:05:43.963Z,19.00
2019-01-23T07:08:13.058Z,11.68
2019-01-23T07:10:42.272Z,16.52
2019-01-23T07:13:11.663Z,16.70
2019-01-23T07:15:40.818Z,16.45
2019-01-23T07:18:10.117Z,17.65
2019-01-23T07:20:39.275Z,14.28
2019-01-23T07:23:08.405Z,18.23
2019-01-23T07:25:37.483Z,16.93
2019-01-23T07:28:06.714Z,13.93
2019-01-23T07:30:41.178Z,18.87
2019-01-23T07:33:10.447Z,15.18
2019-01-23T07:35:39.856Z,15.80
2019-01-23T07:38:09.101Z,14.73
2019-01-23T07:40:38.332Z,15.00
2019-01-23T07:43:07.683Z,17.77
2019-01-23T07:45:37.168Z,16.05
2019-01-23T07:48:06.390Z,18.05
2019-01-23T07:50:35.627Z,16.65
2019-01-23T07:53:04.619Z,18.20
2019-01-23T07:55:34.187Z,18.80
2019-01-23T07:58:04.045Z,16.82
2019-01-23T08:00:33.913Z,20.60
2019-01-23T08:03:03.915Z,14.98
2019-01-23T08:05:33.085Z,14.47
2019-01-23T08:08:02.438Z,17.15
2019-01-23T08:10:31.453Z,21.87
2019-01-23T08:13:01.107Z,17.98
2019-01-23T08:15:32.290Z,10.80
2019-01-23T08:18:01.524Z,15.63
2019-01-23T08:20:31.088Z,14.65
2019-01-23T08:23:00.121Z,16.70
2019-01-23T08:25:30.824Z,10.90
2019-01-23T08:28:00.108Z,19.37
2019-01-23T08:30:29.190Z,15.93
2019-01-23T08:32:58.167Z,15.15
2019-01-23T08:35:28.216Z,17.12
2019-01-23T08:37:57.802Z,14.23
2019-01-23T08:40:27.039Z,10.55
2019-01-23T08:42:56.490Z,17.02
2019-01-23T08:45:25.593Z,15.93
2019-01-23T08:47:54.734Z,17.10
2019-01-23T08:50:32.542Z,13.70
2019-01-23T08:53:01.803Z,16.87
2019-01-23T08:55:31.065Z,15.35
2019-01-23T08:58:00.207Z,12.75
2019-01-23T09:00:29.512Z,8.25
2019-01-23T09:02:58.628Z,8.80
2019-01-23T09:05:27.630Z,16.80
2019-01-23T09:07:56.693Z,10.60
2019-01-23T09:10:44.906Z,8.68
2019-01-23T09:13:33.633Z,8.55
2019-01-23T09:16:02.672Z,10.90
2019-01-23T09:18:31.790Z,17.98
2019-01-23T09:21:00.753Z,18.42
2019-01-23T09:23:29.845Z,16.45
2019-01-23T09:25:59.159Z,15.03
2019-01-23T09:28:28.381Z,12.00
2019-01-23T09:31:17.146Z,17.90
2019-01-23T09:34:33.667Z,16.50
2019-01-23T09:37:22.319Z,15.98
2019-01-23T09:40:28.455Z,18.60
2019-01-23T09:43:39.286Z,17.57
2019-01-23T09:46:40.435Z,10.48
2019-01-23T09:49:34.016Z,11.40
2019-01-23T09:52:43.185Z,15.85
2019-01-23T09:55:14.115Z,14.87
2019-01-23T09:57:46.657Z,14.20
2019-01-23T10:00:19.637Z,18.55
2019-01-23T10:02:48.977Z,15.15
2019-01-23T10:05:18.183Z,18.98
2019-01-23T10:07:47.189Z,16.80
2019-01-23T10:10:17.780Z,18.42
2019-01-23T10:12:46.802Z,18.95
2019-01-23T10:15:25.910Z,16.70
2019-01-23T10:17:55.325Z,16.73
2019-01-23T10:20:24.431Z,20.02
2019-01-23T10:22:54.000Z,14.18
2019-01-23T10:25:23.269Z,17.62
2019-01-23T10:27:52.407Z,17.73
2019-01-23T10:30:21.424Z,16.80
2019-01-23T10:32:50.647Z,13.88
2019-01-23T10:35:19.805Z,18.32
2019-01-23T10:37:49.139Z,15.40
2019-01-23T10:40:18.604Z,17.60
2019-01-23T10:42:47.584Z,18.35
2019-01-23T10:45:16.607Z,17.73
2019-01-23T10:47:45.805Z,17.82
2019-01-23T10:50:18.670Z,17.48
2019-01-23T10:52:48.450Z,11.88
2019-01-23T10:55:17.770Z,18.90
2019-01-23T10:57:47.264Z,18.02
2019-01-23T11:00:19.426Z,18.92
2019-01-23T11:02:48.736Z,17.95
2019-01-23T11:05:20.104Z,16.60
2019-01-23T11:07:52.169Z,16.95
2019-01-23T11:10:25.585Z,15.72
2019-01-23T11:12:56.548Z,18.85
2019-01-23T11:15:27.516Z,22.32
2019-01-23T11:17:57.375Z,19.98
2019-01-23T11:20:27.565Z,19.15
2019-01-23T11:22:57.123Z,18.10
2019-01-23T11:25:27.218Z,19.17
2019-01-23T11:27:56.592Z,21.75
2019-01-23T11:30:27.022Z,18.07
2019-01-23T11:32:57.670Z,14.38
2019-01-23T11:35:30.388Z,19.98
2019-01-23T11:38:03.021Z,19.57
2019-01-23T11:40:32.325Z,19.45
2019-01-23T11:43:02.778Z,20.95
2019-01-23T11:45:32.105Z,17.37
2019-01-23T11:48:01.659Z,19.40
2019-01-23T11:50:30.958Z,17.67
2019-01-23T11:53:00.230Z,19.70
2019-01-23T11:55:29.755Z,18.80
2019-01-23T11:58:02.867Z,18.15
2019-01-23T12:00:37.783Z,20.60
2019-01-23T12:03:07.236Z,19.95
2019-01-23T12:05:37.414Z,17.40
2019-01-23T12:08:12.805Z,20.10
2019-01-23T12:10:44.964Z,21.45
2019-01-23T12:13:14.315Z,22.15
2019-01-23T12:15:43.346Z,22.07
2019-01-23T12:18:12.560Z,17.73
2019-01-23T12:20:42.054Z,20.65
2019-01-23T12:23:12.609Z,21.65
2019-01-23T12:25:45.792Z,22.35
2019-01-23T12:28:15.421Z,19.40
2019-01-23T12:30:44.711Z,22.87
2019-01-23T12:33:13.696Z,22.00
2019-01-23T12:35:43.016Z,23.15
2019-01-23T12:38:12.842Z,21.35
2019-01-23T12:40:42.403Z,22.27
2019-01-23T12:43:12.235Z,19.98
2019-01-23T12:45:41.742Z,21.02
2019-01-23T12:48:12.661Z,22.55
2019-01-23T12:50:42.136Z,22.87
2019-01-23T12:53:13.649Z,20.80
2019-01-23T12:55:44.092Z,20.57
2019-01-23T12:58:13.624Z,16.10
2019-01-23T13:00:46.088Z,18.80
2019-01-23T13:03:17.698Z,14.68
2019-01-23T13:05:53.346Z,21.33
2019-01-23T13:08:24.757Z,22.02
2019-01-23T13:10:54.011Z,21.15
2019-01-23T13:13:23.649Z,20.92
2019-01-23T13:15:53.753Z,20.05
2019-01-23T13:18:22.812Z,20.37
2019-01-23T13:20:52.400Z,19.20
2019-01-23T13:23:21.556Z,18.20
2019-01-23T13:26:09.645Z,22.32
2019-01-23T13:31:51.714Z,15.68
2019-01-23T13:34:39.807Z,19.55
2019-01-23T13:37:28.088Z,20.05
2019-01-23T13:46:41.680Z,19.40
2019-01-23T13:49:29.811Z,20.27
2019-01-23T13:52:11.059Z,21.27
2019-01-23T13:54:52.239Z,17.25
2019-01-23T13:57:32.595Z,20.55
2019-01-23T14:00:13.279Z,21.62
2019-01-23T14:02:54.164Z,19.75
2019-01-23T14:05:35.363Z,21.00
2019-01-23T14:08:15.749Z,19.45
2019-01-23T14:10:56.151Z,20.00
2019-01-23T14:13:37.058Z,18.77
2019-01-23T14:16:17.703Z,18.65
2019-01-23T14:19:00.123Z,19.67
2019-01-23T14:21:41.078Z,20.30
2019-01-23T14:24:22.559Z,17.12
2019-01-23T14:29:46.216Z,19.87
2019-01-23T14:35:09.085Z,16.55
2019-01-23T14:37:50.033Z,16.90
2019-01-23T14:40:31.304Z,18.25
2019-01-23T14:43:11.947Z,16.00
2019-01-23T14:45:53.631Z,16.80
2019-01-23T14:48:34.252Z,21.02
2019-01-23T14:51:14.596Z,19.35
2019-01-23T14:53:55.277Z,19.80
2019-01-23T14:56:36.032Z,18.70
2019-01-23T14:59:16.922Z,21.60
2019-01-23T15:01:57.893Z,21.48
2019-01-23T15:04:39.033Z,21.57
2019-01-23T15:07:19.485Z,19.75
2019-01-23T15:10:01.143Z,21.82
2019-01-23T15:12:42.724Z,19.60
2019-01-23T15:15:23.612Z,20.30
2019-01-23T15:18:04.108Z,19.73
2019-01-23T15:20:44.652Z,21.62
2019-01-23T15:23:25.690Z,19.27
2019-01-23T15:26:07.063Z,20.65
2019-01-23T15:28:48.404Z,18.73
2019-01-23T15:31:28.898Z,21.40
2019-01-23T15:34:09.976Z,20.43
2019-01-23T15:36:50.720Z,22.30
2019-01-23T15:39:32.134Z,20.40
2019-01-23T15:42:13.330Z,21.85
2019-01-23T15:44:54.910Z,21.12
2019-01-23T15:47:38.310Z,21.20
2019-01-23T15:50:19.162Z,21.65
2019-01-23T15:53:00.069Z,21.95
2019-01-23T15:55:40.958Z,23.60
2019-01-23T15:58:22.473Z,20.70
2019-01-23T16:00:51.903Z,20.70
2019-01-23T16:03:21.619Z,20.85
2019-01-23T16:05:50.862Z,18.95
2019-01-23T16:08:20.520Z,21.05
2019-01-23T16:10:55.898Z,20.92
2019-01-23T16:13:34.830Z,21.05
2019-01-23T16:16:06.149Z,18.60
2019-01-23T16:18:35.651Z,22.13
2019-01-23T16:21:07.190Z,20.20
2019-01-23T16:23:36.538Z,20.82
2019-01-23T16:26:05.757Z,20.45
2019-01-23T16:28:35.458Z,20.62
2019-01-23T16:31:04.757Z,20.77
2019-01-23T16:33:33.913Z,21.07
2019-01-23T16:36:03.151Z,20.75
2019-01-23T16:38:32.523Z,23.27
2019-01-23T16:41:01.883Z,23.32
2019-01-23T16:43:31.059Z,21.50
2019-01-23T16:46:00.313Z,21.05
2019-01-23T16:48:29.979Z,20.95
2019-01-23T16:50:59.145Z,19.77
2019-01-23T16:53:28.759Z,22.48
2019-01-23T16:55:57.841Z,24.25
2019-01-23T16:58:27.216Z,21.35
2019-01-23T17:00:56.359Z,21.10
2019-01-23T17:03:25.621Z,22.50
2019-01-23T17:05:54.841Z,19.55
2019-01-23T17:08:24.265Z,21.48
2019-01-23T17:10:53.300Z,22.80
2019-01-23T17:13:22.571Z,19.80
2019-01-23T17:15:51.837Z,19.00
2019-01-23T17:18:21.097Z,18.52
2019-01-23T17:20:50.361Z,18.92
2019-01-23T17:23:19.498Z,20.15
2019-01-23T17:25:48.484Z,18.10
2019-01-23T17:28:17.736Z,20.27
2019-01-23T17:30:46.931Z,18.42
2019-01-23T17:33:16.916Z,20.57
2019-01-23T17:35:46.144Z,20.70
2019-01-23T17:38:15.471Z,18.48
2019-01-23T17:40:44.410Z,18.52
2019-01-23T17:43:14.393Z,17.77
2019-01-23T17:45:43.993Z,20.23
2019-01-23T17:48:14.777Z,18.70
2019-01-23T17:50:44.170Z,20.75
2019-01-23T17:53:13.620Z,19.45
2019-01-23T17:55:42.878Z,18.75
2019-01-23T17:58:13.651Z,19.30
2019-01-23T18:00:49.493Z,18.70
2019-01-23T18:03:19.031Z,18.30
2019-01-23T18:05:51.207Z,19.48
2019-01-23T18:08:19.676Z,19.42
2019-01-23T18:10:48.869Z,18.20
2019-01-23T18:13:18.329Z,20.95
2019-01-23T18:15:47.685Z,19.35
2019-01-23T18:18:16.742Z,18.90
2019-01-23T18:20:47.725Z,17.67
2019-01-23T18:23:16.970Z,19.35
2019-01-23T18:25:46.211Z,17.02
2019-01-23T18:28:15.286Z,19.55
2019-01-23T18:31:17.503Z,19.73
2019-01-23T18:34:10.756Z,18.85
2019-01-23T18:37:10.966Z,17.95
2019-01-23T18:40:10.819Z,18.32
2019-01-23T18:43:35.726Z,18.40
2019-01-23T18:46:26.100Z,18.70
2019-01-23T18:49:45.487Z,18.32
2019-01-23T18:52:14.958Z,18.62
2019-01-23T18:54:44.108Z,18.45
2019-01-23T18:57:16.809Z,18.17
2019-01-23T18:59:46.350Z,20.43
2019-01-23T19:02:15.564Z,18.80
2019-01-23T19:04:45.829Z,18.77
2019-01-23T19:07:14.957Z,20.25
2019-01-23T19:09:47.167Z,21.35
2019-01-23T19:12:16.339Z,20.20
2019-01-23T19:14:45.556Z,18.17
2019-01-23T19:17:14.696Z,18.90
2019-01-23T19:19:43.859Z,17.85
2019-01-23T19:22:13.302Z,19.07
2019-01-23T19:24:42.455Z,18.10
2019-01-23T19:27:11.734Z,18.15
2019-01-23T19:29:40.888Z,20.62
2019-01-23T19:34:40.470Z,19.67
2019-01-23T19:37:10.113Z,19.95
2019-01-23T19:39:39.741Z,20.37
2019-01-23T19:42:08.829Z,21.15
2019-01-23T19:44:38.639Z,20.10
2019-01-23T19:47:07.569Z,19.57
2019-01-23T19:49:36.541Z,20.57
2019-01-23T19:52:06.123Z,21.20
2019-01-23T19:54:35.584Z,20.75
2019-01-23T19:57:04.958Z,17.85
2019-01-23T19:59:34.028Z,19.20
2019-01-23T20:02:03.448Z,20.48
2019-01-23T20:04:32.542Z,18.45
2019-01-23T20:07:01.945Z,20.48
2019-01-23T20:09:31.247Z,21.33
2019-01-23T20:12:00.650Z,20.32
2019-01-23T20:14:29.883Z,19.50
2019-01-23T20:16:58.755Z,19.37
2019-01-23T20:19:27.777Z,22.20
2019-01-23T20:21:56.756Z,19.02
2019-01-23T20:24:25.616Z,20.25
2019-01-23T20:26:54.971Z,19.23
2019-01-23T20:29:24.399Z,19.52
2019-01-23T20:31:53.720Z,20.82
2019-01-23T20:34:23.118Z,20.70
2019-01-23T20:36:52.226Z,21.17
2019-01-23T20:39:25.143Z,21.40
2019-01-23T20:41:54.412Z,23.95
2019-01-23T20:44:23.532Z,20.48
2019-01-23T20:46:52.624Z,19.87
2019-01-23T20:49:22.796Z,21.27
2019-01-23T20:51:52.025Z,20.25
2019-01-23T20:54:21.315Z,19.87
2019-01-23T20:56:50.284Z,20.72
2019-01-23T20:59:19.455Z,21.45
2019-01-23T21:01:48.784Z,20.12
2019-01-23T21:04:18.086Z,19.45
2019-01-23T21:06:47.366Z,19.75
2019-01-23T21:09:16.866Z,19.20
2019-01-23T21:11:46.063Z,20.20
2019-01-23T21:14:15.086Z,19.70
2019-01-23T21:16:44.555Z,19.60
2019-01-23T21:19:13.848Z,19.95
2019-01-23T21:21:43.376Z,20.65
2019-01-23T21:24:12.988Z,21.35
2019-01-23T21:26:43.676Z,22.30
2019-01-23T21:29:14.458Z,20.15
2019-01-23T21:31:44.236Z,19.70
2019-01-23T21:34:13.464Z,20.48
2019-01-23T21:36:44.032Z,21.10
2019-01-23T21:39:13.125Z,21.12
2019-01-23T21:41:42.861Z,21.23
2019-01-23T21:44:12.760Z,22.48
2019-01-23T21:46:41.733Z,22.52
2019-01-23T21:49:11.334Z,20.10
2019-01-23T21:51:40.372Z,21.60
2019-01-23T21:54:09.483Z,20.10
2019-01-23T21:56:38.383Z,19.90
2019-01-23T21:59:09.981Z,21.05
2019-01-23T22:01:39.316Z,22.85
2019-01-23T22:04:08.690Z,21.65
2019-01-23T22:06:37.903Z,21.65
2019-01-23T22:09:10.328Z,23.05
2019-01-23T22:11:43.622Z,21.77
2019-01-23T22:14:12.320Z,21.27
2019-01-23T22:16:41.443Z,20.40
2019-01-23T22:21:44.415Z,22.35
2019-01-23T22:24:21.258Z,22.50
2019-01-23T22:26:50.727Z,20.88
2019-01-23T22:29:19.707Z,21.93
2019-01-23T22:31:50.021Z,19.75
2019-01-23T22:34:19.194Z,24.15
2019-01-23T22:36:48.264Z,21.17
2019-01-23T22:39:17.714Z,22.10
2019-01-23T22:41:46.842Z,21.35
2019-01-23T22:44:15.982Z,22.05
2019-01-23T22:46:45.193Z,24.00
2019-01-23T22:49:14.074Z,21.33
2019-01-23T22:51:43.361Z,21.23
2019-01-23T22:54:12.905Z,22.30
2019-01-23T22:56:41.891Z,27.05
2019-01-23T22:59:10.732Z,23.38
2019-01-23T23:01:40.209Z,22.82
2019-01-23T23:04:09.335Z,23.80
2019-01-23T23:06:38.922Z,25.65
2019-01-23T23:09:10.245Z,21.02
2019-01-23T23:11:39.690Z,23.73
2019-01-23T23:14:08.931Z,26.30
2019-01-23T23:16:37.966Z,27.48
2019-01-23T23:19:07.185Z,21.70
2019-01-23T23:21:36.105Z,32.60
2019-01-23T23:24:05.379Z,22.58
2019-01-23T23:26:34.789Z,22.90
2019-01-23T23:29:04.097Z,26.57
2019-01-23T23:31:33.389Z,23.50
2019-01-23T23:34:02.564Z,28.30
2019-01-23T23:36:31.895Z,27.37
2019-01-23T23:39:00.985Z,23.47
2019-01-23T23:41:30.174Z,27.50
2019-01-23T23:43:59.655Z,25.35
2019-01-23T23:46:28.790Z,22.02
2019-01-23T23:48:57.938Z,23.57
2019-01-23T23:51:27.249Z,23.18
2019-01-23T23:53:56.376Z,24.40
2019-01-23T23:56:25.384Z,24.98
2019-01-23T23:58:54.322Z,26.68
